プンタアレナス の空港の天気 - METARとTAF

プンタアレナス空港 ( SCCI / PUQ ) - チリ プンタアレナス
飛行場実況気象(Metar)
観測時間11/27 05:00 CLST (11/27 08:00 UTC)
風向・風速北西 6m/s
視程10km以上
天気現象
少しの雲 雲底高度 910m
気温6℃
湿度65%
気圧1019hPa
METARSCCI 270800Z 31011KT 9999 FEW030 06/00 Q1019 NOSIG
過去の天気等 Google飛行場航空写真 Wunderground天気予報

過去48時間のMETAR

飛行場予報(TAF)
発表時間: 11/27 01:01 CLST (11/27 04:01 UTC)
予報対象時間: 27日3時 CLST ~ 28日3時 CLST
風向・風速西 10m/s 瞬間風速 15m/s
視程10km以上
少しの雲 雲底高度 1130m
27日3時 CLST ~ 27日5時 CLST に徐々に
風向・風速北西 6m/s
27日19時 CLST ~ 28日3時 CLST に一時的に
風向・風速不定 2m/s
TAF SCCI 270401Z 2706/2806 27020G30KT 9999 FEW037 TN04/2708Z TX19/2719Z
BECMG 2706/2708 31012KT
TEMPO 2722/2806 VRB04KT